createdAt,value
2023-10-10T00:02:30.010Z,99137.47
2023-10-10T00:05:19.613Z,99143.03
2023-10-10T00:08:06.900Z,99143.81
2023-10-10T00:10:52.538Z,99142.25
2023-10-10T00:13:43.989Z,99147.81
2023-10-10T00:16:39.712Z,99140.66
2023-10-10T00:19:27.787Z,99134.34
2023-10-10T00:22:13.434Z,99135.13
2023-10-10T00:24:59.019Z,99135.13
2023-10-10T00:27:45.058Z,99133.56
2023-10-10T00:30:43.776Z,99127.25
2023-10-10T00:33:32.281Z,99120.09
2023-10-10T00:36:32.618Z,99129.22
2023-10-10T00:39:17.839Z,99132.81
2023-10-10T00:42:08.989Z,99128.84
2023-10-10T00:44:54.772Z,99128.84
2023-10-10T00:47:45.869Z,99124.50
2023-10-10T00:50:35.631Z,99128.06
2023-10-10T00:53:24.329Z,99122.91
2023-10-10T00:56:10.246Z,99122.91
2023-10-10T00:58:55.756Z,99126.50
2023-10-10T01:01:41.842Z,99127.69
2023-10-10T01:04:36.917Z,99125.28
2023-10-10T01:07:27.122Z,99124.47
2023-10-10T01:10:12.674Z,99120.06
2023-10-10T01:12:59.940Z,99112.09
2023-10-10T01:15:45.700Z,99110.03
2023-10-10T01:18:32.730Z,99113.53
2023-10-10T01:21:43.378Z,99114.28
2023-10-10T01:24:31.475Z,99115.41
2023-10-10T01:27:17.598Z,99113.38
2023-10-10T01:30:19.180Z,99108.97
2023-10-10T01:33:05.122Z,99110.91
2023-10-10T01:35:53.925Z,99110.09
2023-10-10T01:38:45.330Z,99114.00
2023-10-10T01:41:39.858Z,99110.81
2023-10-10T01:44:29.071Z,99113.88
2023-10-10T01:47:26.787Z,99119.00
2023-10-10T01:50:14.895Z,99123.34
2023-10-10T01:53:01.403Z,99119.38
2023-10-10T01:55:48.793Z,99118.16
2023-10-10T01:58:38.147Z,99107.41
2023-10-10T02:01:25.764Z,99117.34
2023-10-10T02:04:11.928Z,99120.09
2023-10-10T02:06:58.809Z,99119.66
2023-10-10T02:09:54.416Z,99124.81
2023-10-10T02:12:46.166Z,99124.81
2023-10-10T02:15:37.008Z,99118.38
2023-10-10T02:18:38.691Z,99119.97
2023-10-10T02:21:33.428Z,99108.09
2023-10-10T02:24:30.649Z,99113.19
2023-10-10T02:27:23.414Z,99103.69
2023-10-10T02:30:13.525Z,99107.66
2023-10-10T02:32:59.255Z,99112.72
2023-10-10T02:36:03.537Z,99108.75
2023-10-10T02:38:57.634Z,99112.28
2023-10-10T02:41:49.850Z,99122.97
2023-10-10T02:44:35.484Z,99118.94
2023-10-10T02:47:32.479Z,99117.38
2023-10-10T02:50:38.942Z,99117.75
2023-10-10T02:53:24.651Z,99110.19
2023-10-10T02:56:20.001Z,99108.97
2023-10-10T02:59:06.620Z,99114.88
2023-10-10T03:01:56.290Z,99122.00
2023-10-10T03:04:56.839Z,99122.00
2023-10-10T03:07:43.609Z,99123.56
2023-10-10T03:10:42.854Z,99125.94
2023-10-10T03:13:37.021Z,99129.50
2023-10-10T03:16:23.622Z,99131.03
2023-10-10T03:19:20.775Z,99122.72
2023-10-10T03:22:30.330Z,99133.41
2023-10-10T03:25:23.279Z,99135.81
2023-10-10T03:28:19.993Z,99131.03
2023-10-10T03:31:08.875Z,99124.28
2023-10-10T03:34:12.766Z,99131.41
2023-10-10T03:37:21.406Z,99129.00
2023-10-10T03:40:27.590Z,99130.22
2023-10-10T03:43:32.708Z,99137.69
2023-10-10T03:46:39.690Z,99138.91
2023-10-10T03:49:44.043Z,99134.13
2023-10-10T03:52:47.971Z,99126.56
2023-10-10T03:55:56.301Z,99123.78
2023-10-10T03:59:00.414Z,99134.50
2023-10-10T04:02:04.221Z,99139.28
2023-10-10T04:05:23.780Z,99140.81
2023-10-10T04:08:30.914Z,99130.50
2023-10-10T04:11:34.978Z,99129.66
2023-10-10T04:14:38.982Z,99128.06
2023-10-10T04:17:42.941Z,99128.84
2023-10-10T04:20:46.747Z,99136.00
2023-10-10T04:23:50.523Z,99131.56
2023-10-10T04:26:54.595Z,99116.13
2023-10-10T04:29:58.603Z,99117.69
2023-10-10T04:33:02.649Z,99110.47
2023-10-10T04:36:06.383Z,99123.19
2023-10-10T04:39:10.138Z,99120.41
2023-10-10T04:42:14.113Z,99130.28
2023-10-10T04:45:17.892Z,99131.44
2023-10-10T04:48:21.650Z,99137.44
2023-10-10T04:51:25.504Z,99142.19
2023-10-10T04:54:29.715Z,99131.50
2023-10-10T04:57:33.387Z,99138.56
2023-10-10T05:00:37.385Z,99152.09
2023-10-10T05:03:41.360Z,99147.00
2023-10-10T05:06:45.174Z,99146.25
2023-10-10T05:09:49.243Z,99151.78
2023-10-10T05:12:53.265Z,99144.69
2023-10-10T05:15:57.144Z,99154.56
2023-10-10T05:19:01.230Z,99153.03
2023-10-10T05:22:05.645Z,99157.78
2023-10-10T05:24:53.100Z,99165.69
2023-10-10T05:27:42.345Z,99174.03
2023-10-10T05:30:41.030Z,99181.16
2023-10-10T05:33:31.497Z,99166.06
2023-10-10T05:36:19.794Z,99170.41
2023-10-10T05:39:06.170Z,99182.72
2023-10-10T05:41:55.718Z,99179.13
2023-10-10T05:44:42.518Z,99182.59
2023-10-10T05:47:28.148Z,99178.97
2023-10-10T05:50:14.356Z,99172.97
2023-10-10T05:53:01.936Z,99173.31
2023-10-10T05:55:54.483Z,99184.84
2023-10-10T05:58:44.198Z,99178.47
2023-10-10T06:01:31.833Z,99184.78
2023-10-10T06:04:17.490Z,99179.28
2023-10-10T06:07:04.731Z,99181.66
2023-10-10T06:09:52.865Z,99188.03
2023-10-10T06:12:38.192Z,99185.25
2023-10-10T06:15:23.450Z,99188.03
2023-10-10T06:18:15.149Z,99192.00
2023-10-10T06:21:10.135Z,99193.22
2023-10-10T06:24:31.095Z,99190.44
2023-10-10T06:27:19.102Z,99188.09
2023-10-10T06:30:05.724Z,99188.13
2023-10-10T06:32:52.141Z,99202.47
2023-10-10T06:35:39.115Z,99200.84
2023-10-10T06:38:25.912Z,99194.78
2023-10-10T06:41:19.046Z,99204.28
2023-10-10T06:44:23.695Z,99201.47
2023-10-10T06:47:13.480Z,99200.69
2023-10-10T06:50:03.607Z,99197.91
2023-10-10T06:52:53.495Z,99202.22
2023-10-10T06:55:38.726Z,99206.59
2023-10-10T06:58:23.909Z,99206.16
2023-10-10T07:01:09.289Z,99204.94
2023-10-10T07:03:57.488Z,99218.84
2023-10-10T07:06:46.067Z,99220.50
2023-10-10T07:09:31.681Z,99219.69
2023-10-10T07:12:17.652Z,99216.91
2023-10-10T07:15:07.699Z,99208.16
2023-10-10T07:18:09.826Z,99215.72
2023-10-10T07:21:05.762Z,99220.03
2023-10-10T07:24:20.413Z,99229.97
2023-10-10T07:27:12.576Z,99221.28
2023-10-10T07:29:59.172Z,99225.25
2023-10-10T07:32:45.366Z,99217.34
2023-10-10T07:35:37.269Z,99220.91
2023-10-10T07:38:30.214Z,99231.25
2023-10-10T07:41:20.787Z,99234.81
2023-10-10T07:44:06.512Z,99234.41
2023-10-10T07:47:11.136Z,99231.63
2023-10-10T07:50:00.610Z,99241.09
2023-10-10T07:52:46.177Z,99246.66
2023-10-10T07:55:51.851Z,99251.41
2023-10-10T07:58:53.694Z,99252.22
2023-10-10T08:01:39.433Z,99254.13
2023-10-10T08:04:26.700Z,99248.56
2023-10-10T08:07:12.395Z,99251.34
2023-10-10T08:10:14.586Z,99252.91
2023-10-10T08:13:01.736Z,99251.75
2023-10-10T08:15:57.139Z,99256.53
2023-10-10T08:18:48.333Z,99253.41
2023-10-10T08:21:40.742Z,99257.78
2023-10-10T08:24:25.987Z,99260.19
2023-10-10T08:27:12.239Z,99264.09
2023-10-10T08:29:57.291Z,99260.91
2023-10-10T08:32:42.635Z,99257.31
2023-10-10T08:35:31.942Z,99258.13
2023-10-10T08:38:21.344Z,99259.75
2023-10-10T08:41:09.932Z,99260.91
2023-10-10T08:43:59.312Z,99256.91
2023-10-10T08:46:50.156Z,99256.19
2023-10-10T08:49:36.660Z,99247.44
2023-10-10T08:52:23.654Z,99255.00
2023-10-10T08:55:11.479Z,99262.09
2023-10-10T08:57:57.134Z,99253.75
2023-10-10T09:00:42.716Z,99258.91
2023-10-10T09:03:28.385Z,99255.69
2023-10-10T09:06:22.582Z,99268.81
2023-10-10T09:09:27.674Z,99264.03
2023-10-10T09:12:16.298Z,99273.22
2023-10-10T09:15:18.092Z,99270.03
2023-10-10T09:18:24.040Z,99272.03
2023-10-10T09:21:20.436Z,99263.31
2023-10-10T09:24:28.549Z,99272.44
2023-10-10T09:27:22.875Z,99265.66
2023-10-10T09:30:11.020Z,99265.66
2023-10-10T09:33:14.168Z,99267.25
2023-10-10T09:36:11.153Z,99264.47
2023-10-10T09:39:18.138Z,99265.59
2023-10-10T09:42:24.805Z,99256.50
2023-10-10T09:45:27.846Z,99256.13
2023-10-10T09:48:32.467Z,99260.91
2023-10-10T09:51:37.311Z,99261.69
2023-10-10T09:54:26.565Z,99263.25
2023-10-10T10:00:19.966Z,99258.47
2023-10-10T10:03:32.483Z,99264.03
2023-10-10T10:06:27.387Z,99258.47
2023-10-10T10:09:34.213Z,99258.03
2023-10-10T10:12:42.812Z,99264.38
2023-10-10T10:16:20.904Z,99260.00
2023-10-10T10:19:15.317Z,99259.13
2023-10-10T10:22:14.886Z,99259.13
2023-10-10T10:25:29.826Z,99266.69
2023-10-10T10:28:21.289Z,99263.91
2023-10-10T10:31:09.231Z,99269.03
2023-10-10T10:34:11.293Z,99272.63
2023-10-10T10:37:08.045Z,99274.94
2023-10-10T10:40:13.111Z,99269.38
2023-10-10T10:42:59.413Z,99273.75
2023-10-10T10:46:13.461Z,99271.75
2023-10-10T10:49:06.969Z,99266.19
2023-10-10T10:52:13.414Z,99263.41
2023-10-10T10:55:18.529Z,99264.63
2023-10-10T10:58:10.255Z,99253.53
2023-10-10T11:01:08.621Z,99245.19
2023-10-10T11:03:55.189Z,99253.53
2023-10-10T11:06:51.535Z,99235.59
2023-10-10T11:09:44.855Z,99234.38
2023-10-10T11:12:33.355Z,99235.97
2023-10-10T11:15:19.147Z,99231.19
2023-10-10T11:18:09.484Z,99231.97
2023-10-10T11:21:08.098Z,99233.56
2023-10-10T11:23:54.080Z,99228.00
2023-10-10T11:26:41.012Z,99226.41
2023-10-10T11:29:29.344Z,99227.13
2023-10-10T11:32:25.640Z,99211.31
2023-10-10T11:35:17.188Z,99214.44
2023-10-10T11:38:10.714Z,99217.59
2023-10-10T11:41:00.900Z,99214.81
2023-10-10T11:44:03.996Z,99212.03
2023-10-10T11:46:50.822Z,99194.53
2023-10-10T11:49:36.757Z,99194.97
2023-10-10T11:52:22.519Z,99198.13
2023-10-10T11:55:09.614Z,99196.91
2023-10-10T11:57:59.396Z,99197.66
2023-10-10T12:00:46.949Z,99196.47
2023-10-10T12:03:43.063Z,99195.25
2023-10-10T12:06:28.910Z,99190.47
2023-10-10T12:09:20.789Z,99197.63
2023-10-10T12:12:06.121Z,99190.41
2023-10-10T12:14:51.721Z,99190.75
2023-10-10T12:17:39.533Z,99184.78
2023-10-10T12:20:26.241Z,99187.09
2023-10-10T12:23:12.184Z,99196.25
2023-10-10T12:26:00.451Z,99188.69
2023-10-10T12:28:49.658Z,99177.56
2023-10-10T12:31:35.870Z,99178.75
2023-10-10T12:34:22.649Z,99186.34
2023-10-10T12:37:08.222Z,99189.13
2023-10-10T12:39:53.872Z,99192.69
2023-10-10T12:42:40.374Z,99190.34
2023-10-10T12:45:25.476Z,99186.69
2023-10-10T12:48:21.572Z,99175.97
2023-10-10T12:51:11.811Z,99173.22
2023-10-10T12:54:09.891Z,99182.34
2023-10-10T12:57:03.839Z,99162.88
2023-10-10T12:59:49.704Z,99170.00
2023-10-10T13:02:35.038Z,99166.00
2023-10-10T13:05:28.289Z,99172.00
2023-10-10T13:08:16.444Z,99181.13
2023-10-10T13:11:04.052Z,99179.56
2023-10-10T13:13:53.106Z,99167.63
2023-10-10T13:16:40.329Z,99166.00
2023-10-10T13:19:26.825Z,99158.09
2023-10-10T13:22:22.501Z,99157.75
2023-10-10T13:25:11.550Z,99162.94
2023-10-10T13:27:56.806Z,99165.72
2023-10-10T13:30:42.723Z,99164.94
2023-10-10T13:33:28.125Z,99167.38
2023-10-10T13:36:16.976Z,99159.44
2023-10-10T13:39:07.350Z,99158.69
2023-10-10T13:41:53.810Z,99161.09
2023-10-10T13:44:40.753Z,99156.31
2023-10-10T13:47:26.523Z,99151.22
2023-10-10T13:50:29.789Z,99156.75
2023-10-10T13:53:16.286Z,99158.75
2023-10-10T13:56:05.060Z,99157.19
2023-10-10T13:58:53.363Z,99157.59
2023-10-10T14:01:41.451Z,99147.25
2023-10-10T14:04:39.294Z,99147.25
2023-10-10T14:07:26.282Z,99142.50
2023-10-10T14:10:11.523Z,99142.94
2023-10-10T14:13:06.488Z,99141.28
2023-10-10T14:15:59.544Z,99126.59
2023-10-10T14:18:48.727Z,99140.91
2023-10-10T14:21:34.219Z,99134.22
2023-10-10T14:24:20.221Z,99127.03
2023-10-10T14:27:06.591Z,99125.88
2023-10-10T14:29:52.036Z,99124.75
2023-10-10T14:32:42.650Z,99134.28
2023-10-10T14:35:28.464Z,99128.72
2023-10-10T14:38:17.572Z,99123.16
2023-10-10T14:41:02.957Z,99117.59
2023-10-10T14:43:51.001Z,99122.38
2023-10-10T14:46:36.496Z,99116.06
2023-10-10T14:49:30.171Z,99114.81
2023-10-10T14:52:18.359Z,99115.28
2023-10-10T14:55:09.018Z,99108.94
2023-10-10T14:57:56.610Z,99102.56
2023-10-10T15:00:43.872Z,99098.59
2023-10-10T15:03:31.464Z,99104.94
2023-10-10T15:06:17.431Z,99100.94
2023-10-10T15:09:03.812Z,99098.59
2023-10-10T15:11:49.133Z,99093.81
2023-10-10T15:14:34.485Z,99093.81
2023-10-10T15:17:21.640Z,99103.72
2023-10-10T15:20:07.755Z,99096.59
2023-10-10T15:22:53.272Z,99091.38
2023-10-10T15:25:40.697Z,99091.38
2023-10-10T15:28:26.892Z,99092.16
2023-10-10T15:31:13.344Z,99092.16
2023-10-10T15:33:59.531Z,99098.44
2023-10-10T15:36:45.226Z,99093.66
2023-10-10T15:39:31.187Z,99093.66
2023-10-10T15:42:16.978Z,99096.78
2023-10-10T15:45:06.216Z,99096.00
2023-10-10T15:47:55.922Z,99096.38
2023-10-10T15:50:47.743Z,99100.78
2023-10-10T15:53:33.165Z,99092.53
2023-10-10T15:56:18.710Z,99092.94
2023-10-10T15:59:04.727Z,99098.16
2023-10-10T16:01:50.237Z,99104.16
2023-10-10T16:04:35.335Z,99097.88
2023-10-10T16:07:21.334Z,99093.88
2023-10-10T16:10:08.954Z,99101.03
2023-10-10T16:12:54.501Z,99095.03
2023-10-10T16:15:40.115Z,99094.16
2023-10-10T16:21:10.752Z,99088.97
2023-10-10T16:23:56.189Z,99104.00
2023-10-10T16:26:45.540Z,99084.88
2023-10-10T16:29:36.978Z,99097.13
2023-10-10T16:32:22.656Z,99093.13
2023-10-10T16:35:12.311Z,99084.38
2023-10-10T16:37:57.841Z,99086.72
2023-10-10T16:40:44.039Z,99094.19
2023-10-10T16:43:43.136Z,99090.22
2023-10-10T16:46:35.811Z,99091.78
2023-10-10T16:49:24.070Z,99090.91
2023-10-10T16:52:09.365Z,99095.69
2023-10-10T16:54:54.927Z,99096.03
2023-10-10T16:57:41.155Z,99094.38
2023-10-10T17:00:26.746Z,99097.97
2023-10-10T17:03:13.321Z,99089.19
2023-10-10T17:06:02.771Z,99092.72
2023-10-10T17:08:48.174Z,99078.41
2023-10-10T17:11:33.455Z,99080.34
2023-10-10T17:14:21.548Z,99087.44
2023-10-10T17:17:07.305Z,99080.66
2023-10-10T17:19:52.562Z,99081.81
2023-10-10T17:22:38.043Z,99091.72
2023-10-10T17:25:23.400Z,99086.16
2023-10-10T17:28:08.944Z,99085.38
2023-10-10T17:31:00.116Z,99081.72
2023-10-10T17:33:45.908Z,99072.16
2023-10-10T17:36:31.084Z,99079.63
2023-10-10T17:39:17.433Z,99074.50
2023-10-10T17:42:03.495Z,99071.28
2023-10-10T17:44:49.223Z,99071.72
2023-10-10T17:47:34.896Z,99073.72
2023-10-10T17:50:23.234Z,99077.75
2023-10-10T17:53:13.095Z,99075.38
2023-10-10T17:56:01.040Z,99068.69
2023-10-10T17:58:47.459Z,99065.13
2023-10-10T18:01:32.878Z,99060.34
2023-10-10T18:04:18.567Z,99059.56
2023-10-10T18:07:06.367Z,99058.75
2023-10-10T18:09:55.444Z,99050.88
2023-10-10T18:12:42.200Z,99058.41
2023-10-10T18:15:27.496Z,99058.84
2023-10-10T18:18:12.939Z,99057.63
2023-10-10T18:20:58.787Z,99059.63
2023-10-10T18:23:44.797Z,99061.19
2023-10-10T18:26:30.646Z,99063.97
2023-10-10T18:29:16.960Z,99054.06
2023-10-10T18:32:05.167Z,99050.06
2023-10-10T18:34:50.937Z,99051.28
2023-10-10T18:37:37.692Z,99059.22
2023-10-10T18:40:23.075Z,99051.28
2023-10-10T18:43:10.554Z,99050.06
2023-10-10T18:45:56.112Z,99052.06
2023-10-10T18:48:41.978Z,99049.28
2023-10-10T18:51:27.979Z,99048.50
2023-10-10T18:54:13.988Z,99046.97
2023-10-10T18:57:00.393Z,99042.94
2023-10-10T18:59:47.928Z,99037.38
2023-10-10T19:02:33.641Z,99034.25
2023-10-10T19:05:19.841Z,99033.81
2023-10-10T19:08:05.587Z,99036.59
2023-10-10T19:10:52.151Z,99035.81
2023-10-10T19:13:39.019Z,99039.81
2023-10-10T19:16:24.352Z,99027.97
2023-10-10T19:19:09.919Z,99032.78
2023-10-10T19:21:55.390Z,99030.41
2023-10-10T19:24:41.132Z,99016.16
2023-10-10T19:27:27.558Z,99021.38
2023-10-10T19:30:17.331Z,99021.03
2023-10-10T19:33:02.867Z,99025.03
2023-10-10T19:35:48.144Z,99019.88
2023-10-10T19:38:34.458Z,99015.19
2023-10-10T19:41:20.085Z,99009.28
2023-10-10T19:44:07.265Z,99009.72
2023-10-10T19:46:54.843Z,99006.59
2023-10-10T19:49:40.220Z,99011.81
2023-10-10T19:52:26.575Z,99003.91
2023-10-10T19:55:21.411Z,99002.00
2023-10-10T19:58:11.090Z,98988.94
2023-10-10T20:00:59.911Z,98990.59
2023-10-10T20:03:48.308Z,98998.56
2023-10-10T20:06:33.625Z,98997.03
2023-10-10T20:09:21.676Z,98986.31
2023-10-10T20:12:07.441Z,98994.72
2023-10-10T20:14:52.920Z,98987.63
2023-10-10T20:17:38.252Z,98997.16
2023-10-10T20:20:27.191Z,98989.28
2023-10-10T20:23:12.696Z,98992.06
2023-10-10T20:25:58.101Z,98993.72
2023-10-10T20:28:43.859Z,98977.44
2023-10-10T20:31:29.302Z,98977.09
2023-10-10T20:34:14.657Z,98981.88
2023-10-10T20:37:00.143Z,98980.28
2023-10-10T20:39:45.708Z,98978.31
2023-10-10T20:42:32.150Z,98982.72
2023-10-10T20:45:19.730Z,98982.72
2023-10-10T20:48:13.836Z,98983.91
2023-10-10T20:50:59.530Z,98978.00
2023-10-10T20:53:46.912Z,98970.44
2023-10-10T20:56:32.931Z,98969.31
2023-10-10T20:59:19.602Z,98980.44
2023-10-10T21:02:04.749Z,98978.06
2023-10-10T21:04:50.213Z,98977.31
2023-10-10T21:07:39.314Z,98978.53
2023-10-10T21:10:25.453Z,98976.94
2023-10-10T21:13:10.779Z,98957.94
2023-10-10T21:15:56.114Z,98978.59
2023-10-10T21:18:41.591Z,98970.25
2023-10-10T21:21:26.829Z,98963.16
2023-10-10T21:24:12.239Z,98965.56
2023-10-10T21:26:57.562Z,98969.13
2023-10-10T21:29:43.167Z,98973.91
2023-10-10T21:32:29.073Z,98968.34
2023-10-10T21:35:14.255Z,98973.56
2023-10-10T21:38:03.355Z,98971.19
2023-10-10T21:40:50.558Z,98978.34
2023-10-10T21:43:35.937Z,98982.31
2023-10-10T21:46:21.224Z,98986.72
2023-10-10T21:49:06.465Z,98985.97
2023-10-10T21:51:51.817Z,98987.50
2023-10-10T21:54:39.180Z,98982.41
2023-10-10T21:57:24.708Z,98981.59
2023-10-10T22:00:16.963Z,98972.47
2023-10-10T22:03:06.217Z,98962.59
2023-10-10T22:05:51.928Z,98951.50
2023-10-10T22:08:37.712Z,98947.91
2023-10-10T22:11:24.454Z,98934.47
2023-10-10T22:14:12.859Z,98930.47
2023-10-10T22:16:58.469Z,98928.13
2023-10-10T22:19:43.852Z,98922.56
2023-10-10T22:22:29.171Z,98925.34
2023-10-10T22:25:25.175Z,98914.66
2023-10-10T22:28:11.286Z,98918.22
2023-10-10T22:30:56.626Z,98908.34
2023-10-10T22:33:41.914Z,98906.75
2023-10-10T22:36:28.904Z,98903.63
2023-10-10T22:39:15.071Z,98903.63
2023-10-10T22:42:00.722Z,98895.28
2023-10-10T22:44:46.181Z,98896.50
2023-10-10T22:47:31.473Z,98894.94
2023-10-10T22:50:18.121Z,98896.50
2023-10-10T22:53:05.702Z,98900.50
2023-10-10T22:55:52.126Z,98906.03
2023-10-10T22:58:37.345Z,98906.03
2023-10-10T23:01:23.412Z,98916.38
2023-10-10T23:04:09.072Z,98915.59
2023-10-10T23:06:54.433Z,98913.59
2023-10-10T23:09:42.740Z,98915.59
2023-10-10T23:12:28.467Z,98906.91
2023-10-10T23:15:13.834Z,98906.91
2023-10-10T23:18:01.357Z,98910.91
2023-10-10T23:20:47.324Z,98916.47
2023-10-10T23:23:33.010Z,98910.91
2023-10-10T23:26:22.136Z,98906.56
2023-10-10T23:29:07.889Z,98902.22
2023-10-10T23:31:53.531Z,98902.22
2023-10-10T23:34:38.770Z,98908.56
2023-10-10T23:37:24.788Z,98901.44
2023-10-10T23:40:17.354Z,98911.75
2023-10-10T23:43:02.758Z,98913.75
2023-10-10T23:45:56.026Z,98907.44
2023-10-10T23:48:41.747Z,98910.63
2023-10-10T23:51:28.017Z,98922.50
2023-10-10T23:54:13.833Z,98922.50
2023-10-10T23:56:59.090Z,98927.66
2023-10-10T23:59:44.571Z,98923.66
